Time;durP1;ratioP1;P1;durP2;ratioP2;P2;SDS_P1;SDS_P2;PMS_P1;PMS_P2;Temp;Humidity;BMP_temperature;BMP_pressure;BME280_temperature;BME280_humidity;BME280_pressure;Samples;Min_cycle;Max_cycle;Signal;HPM_P1;HPM_P2
2022/05/31 00:01:45;;;;;;;;;;;12.40;48.20;;;;;;5022316;28;19917;-89
2022/05/31 00:04:11;;;;;;;;;;;12.40;48.30;;;;;;5021187;28;19917;-89
2022/05/31 00:06:36;;;;;;;;;;;12.30;48.50;;;;;;5038455;28;19917;-89
2022/05/31 00:09:02;;;;;;;;;;;12.40;48.70;;;;;;5014635;28;19918;-89
2022/05/31 00:11:28;;;;;;;;;;;12.30;48.70;;;;;;5011582;28;19971;-89
2022/05/31 00:13:53;;;;;;;;;;;12.30;48.70;;;;;;5036849;28;19921;-89
2022/05/31 00:16:19;;;;;;;;;;;12.30;48.70;;;;;;5035380;28;19947;-89
2022/05/31 00:18:44;;;;;;;;;;;12.30;48.70;;;;;;5019251;28;19917;-88
2022/05/31 00:21:10;;;;;;;;;;;12.30;48.70;;;;;;5018093;28;20277;-89
2022/05/31 00:23:38;;;;;;;;;;;12.30;48.80;;;;;;5035800;28;19920;-89
2022/05/31 00:26:04;;;;;;;;;;;12.30;49.20;;;;;;5030259;28;19952;-89
2022/05/31 00:28:30;;;;;;;;;;;12.30;49.40;;;;;;5034778;28;19913;-88
2022/05/31 00:30:56;;;;;;;;;;;12.30;49.20;;;;;;5017242;28;20301;-89
2022/05/31 00:33:21;;;;;;;;;;;12.20;49.10;;;;;;5016966;28;19931;-88
2022/05/31 00:35:48;;;;;;;;;;;12.20;49.00;;;;;;5035105;28;20350;-89
2022/05/31 00:38:15;;;;;;;;;;;12.20;48.90;;;;;;5035411;28;19952;-90
2022/05/31 00:40:41;;;;;;;;;;;12.10;49.10;;;;;;5035497;28;19918;-89
2022/05/31 00:43:14;;;;;;;;;;;12.10;49.00;;;;;;5011400;28;20721;-89
2022/05/31 00:45:47;;;;;;;;;;;12.00;48.90;;;;;;5030244;28;19952;-89
2022/05/31 00:48:15;;;;;;;;;;;12.00;49.10;;;;;;5034934;28;19921;-89
2022/05/31 00:50:45;;;;;;;;;;;12.00;49.10;;;;;;5035201;28;19970;-89
2022/05/31 00:53:14;;;;;;;;;;;11.90;49.20;;;;;;5035198;28;20007;-88
2022/05/31 00:55:56;;;;;;;;;;;11.90;49.40;;;;;;5004052;28;20289;-88
2022/05/31 00:58:28;;;;;;;;;;;11.90;49.20;;;;;;5018012;28;19928;-88
2022/05/31 01:00:54;;;;;;;;;;;11.80;49.20;;;;;;5011071;28;19918;-89
2022/05/31 01:03:21;;;;;;;;;;;11.80;49.40;;;;;;5032902;28;19967;-88
2022/05/31 01:05:47;;;;;;;;;;;11.80;49.40;;;;;;5019964;28;19917;-89
2022/05/31 01:08:12;;;;;;;;;;;11.80;49.40;;;;;;5035205;28;20205;-88
2022/05/31 01:10:40;;;;;;;;;;;11.80;49.30;;;;;;5018330;28;20004;-88
2022/05/31 01:13:05;;;;;;;;;;;11.80;49.30;;;;;;5035697;28;19924;-88
2022/05/31 01:15:30;;;;;;;;;;;11.70;49.30;;;;;;5018576;28;19921;-89
2022/05/31 01:17:56;;;;;;;;;;;11.70;49.20;;;;;;5029576;28;19920;-89
2022/05/31 01:20:21;;;;;;;;;;;11.70;49.20;;;;;;5015410;28;19975;-89
2022/05/31 01:22:51;;;;;;;;;;;11.60;49.20;;;;;;5018092;28;19917;-89
2022/05/31 01:25:27;;;;;;;;;;;11.60;49.20;;;;;;5034558;28;19940;-89
2022/05/31 01:28:02;;;;;;;;;;;11.50;49.20;;;;;;5016720;28;19921;-89
2022/05/31 01:30:32;;;;;;;;;;;11.50;49.20;;;;;;5016284;28;19917;-89
2022/05/31 01:33:04;;;;;;;;;;;11.50;49.30;;;;;;5016851;28;20441;-89
2022/05/31 01:35:32;;;;;;;;;;;11.40;49.30;;;;;;5034476;28;19917;-89
2022/05/31 01:38:00;;;;;;;;;;;11.40;49.30;;;;;;5016197;28;19928;-89
2022/05/31 01:40:29;;;;;;;;;;;11.30;49.30;;;;;;5032540;28;19986;-89
2022/05/31 01:42:55;;;;;;;;;;;11.30;49.30;;;;;;5017453;28;20028;-89
2022/05/31 01:45:26;;;;;;;;;;;11.30;49.40;;;;;;5016883;28;19964;-89
2022/05/31 01:47:57;;;;;;;;;;;11.20;49.50;;;;;;5016828;28;19984;-89
2022/05/31 01:50:23;;;;;;;;;;;11.20;49.50;;;;;;5016106;28;19917;-89
2022/05/31 01:52:49;;;;;;;;;;;11.20;49.50;;;;;;5027615;28;20008;-89
2022/05/31 01:55:15;;;;;;;;;;;11.20;49.60;;;;;;5018689;28;20313;-89
2022/05/31 01:57:42;;;;;;;;;;;11.20;49.60;;;;;;5031163;28;19943;-89
2022/05/31 02:00:12;;;;;;;;;;;11.20;49.60;;;;;;5017556;28;19924;-89
2022/05/31 02:02:38;;;;;;;;;;;11.10;49.60;;;;;;5027184;28;19922;-89
2022/05/31 02:05:04;;;;;;;;;;;11.10;49.60;;;;;;5016660;28;19913;-89
2022/05/31 02:07:30;;;;;;;;;;;11.10;49.60;;;;;;5017492;28;20005;-89
2022/05/31 02:09:56;;;;;;;;;;;11.10;49.70;;;;;;5017238;28;19952;-89
2022/05/31 02:12:23;;;;;;;;;;;11.00;49.80;;;;;;5016263;28;19933;-89
2022/05/31 02:14:48;;;;;;;;;;;11.00;49.90;;;;;;5033872;28;20400;-89
2022/05/31 02:17:16;;;;;;;;;;;11.00;50.00;;;;;;5014369;28;19913;-89
2022/05/31 02:19:42;;;;;;;;;;;11.00;50.10;;;;;;5016631;28;19940;-89
2022/05/31 02:22:10;;;;;;;;;;;10.90;50.40;;;;;;5009205;28;19925;-89
2022/05/31 02:24:35;;;;;;;;;;;10.90;50.30;;;;;;5016702;28;20265;-89
2022/05/31 02:27:01;;;;;;;;;;;10.90;50.30;;;;;;5033004;28;19913;-88
2022/05/31 02:29:28;;;;;;;;;;;10.90;50.40;;;;;;5016124;28;19921;-89
2022/05/31 02:31:55;;;;;;;;;;;10.90;50.60;;;;;;5013931;28;20285;-90
2022/05/31 02:34:23;;;;;;;;;;;10.80;50.60;;;;;;5017248;28;19940;-89
2022/05/31 02:36:49;;;;;;;;;;;10.80;50.60;;;;;;5034087;28;19924;-89
2022/05/31 02:39:14;;;;;;;;;;;10.80;50.50;;;;;;5033267;28;19924;-89
2022/05/31 02:41:40;;;;;;;;;;;10.80;50.40;;;;;;5017119;28;19959;-89
2022/05/31 02:44:06;;;;;;;;;;;10.70;50.30;;;;;;5033893;28;20393;-89
2022/05/31 02:46:31;;;;;;;;;;;10.70;50.30;;;;;;5034647;28;19913;-89
2022/05/31 02:48:57;;;;;;;;;;;10.70;50.30;;;;;;5016300;28;19924;-90
2022/05/31 02:51:22;;;;;;;;;;;10.70;50.20;;;;;;5033794;28;19917;-89
2022/05/31 02:53:47;;;;;;;;;;;10.70;50.40;;;;;;5034446;28;19929;-89
2022/05/31 02:56:13;;;;;;;;;;;10.70;50.50;;;;;;5014618;28;19935;-89
2022/05/31 02:58:38;;;;;;;;;;;10.60;50.70;;;;;;5015742;28;20020;-89
2022/05/31 03:01:19;;;;;;;;;;;10.60;50.70;;;;;;5033629;28;19913;-89
2022/05/31 03:03:44;;;;;;;;;;;10.60;50.70;;;;;;5016712;28;20324;-88
2022/05/31 03:06:10;;;;;;;;;;;10.60;50.70;;;;;;5033420;28;19909;-89
2022/05/31 03:08:35;;;;;;;;;;;10.60;50.70;;;;;;5015904;28;19932;-89
2022/05/31 03:11:02;;;;;;;;;;;10.60;50.70;;;;;;5032722;28;19913;-89
2022/05/31 03:13:28;;;;;;;;;;;10.50;50.60;;;;;;5014489;28;19925;-89
2022/05/31 03:15:58;;;;;;;;;;;10.50;50.60;;;;;;5014986;28;19913;-89
2022/05/31 03:18:26;;;;;;;;;;;10.50;50.60;;;;;;5015464;28;19928;-89
2022/05/31 03:20:54;;;;;;;;;;;10.50;50.60;;;;;;5013304;28;19928;-89
2022/05/31 03:23:23;;;;;;;;;;;10.50;50.60;;;;;;5014155;28;20416;-89
2022/05/31 03:25:50;;;;;;;;;;;10.50;50.70;;;;;;5033580;28;19921;-89
2022/05/31 03:28:16;;;;;;;;;;;10.50;51.00;;;;;;5014926;28;19956;-89
2022/05/31 03:30:41;;;;;;;;;;;10.60;51.30;;;;;;5034263;28;19920;-89
2022/05/31 03:33:09;;;;;;;;;;;10.70;51.60;;;;;;5014877;28;19929;-89
2022/05/31 03:35:35;;;;;;;;;;;10.70;51.80;;;;;;5014194;28;19917;-89
2022/05/31 03:38:00;;;;;;;;;;;10.80;51.70;;;;;;5010724;28;19924;-89
2022/05/31 03:43:10;;;;;;;;;;;10.90;51.80;;;;;;5035139;28;20670;-89
2022/05/31 03:45:38;;;;;;;;;;;11.00;52.20;;;;;;5019006;28;19920;-89
2022/05/31 03:48:04;;;;;;;;;;;11.20;52.40;;;;;;5036985;28;19923;-90
2022/05/31 03:50:30;;;;;;;;;;;11.30;52.80;;;;;;5019299;28;20296;-89
2022/05/31 03:52:56;;;;;;;;;;;11.60;53.40;;;;;;5035916;28;19918;-90
2022/05/31 03:55:21;;;;;;;;;;;11.90;54.00;;;;;;5017877;28;19983;-89
2022/05/31 03:57:47;;;;;;;;;;;12.20;54.00;;;;;;5024210;28;19917;-90
2022/05/31 04:00:13;;;;;;;;;;;12.50;54.10;;;;;;5034906;28;19921;-89
2022/05/31 04:02:38;;;;;;;;;;;12.80;54.70;;;;;;5035413;28;20420;-90
2022/05/31 04:05:04;;;;;;;;;;;13.30;55.10;;;;;;5020655;28;19941;-90
2022/05/31 04:07:30;;;;;;;;;;;13.70;55.40;;;;;;5017277;28;20288;-89
2022/05/31 04:09:55;;;;;;;;;;;14.00;55.20;;;;;;5018061;28;19913;-88
2022/05/31 04:12:20;;;;;;;;;;;14.40;54.90;;;;;;5018363;28;19921;-88
2022/05/31 04:14:46;;;;;;;;;;;14.80;54.80;;;;;;5020056;28;19928;-88
2022/05/31 04:17:11;;;;;;;;;;;15.20;54.40;;;;;;5017917;28;20059;-90
2022/05/31 04:19:37;;;;;;;;;;;15.50;53.80;;;;;;5018751;28;19928;-91
2022/05/31 04:22:02;;;;;;;;;;;15.80;53.70;;;;;;5018709;28;19913;-90
2022/05/31 04:24:28;;;;;;;;;;;16.00;53.20;;;;;;5036265;28;19963;-88
2022/05/31 04:26:53;;;;;;;;;;;16.30;52.60;;;;;;5019310;28;20376;-88
2022/05/31 04:29:19;;;;;;;;;;;16.60;52.80;;;;;;5036203;28;20793;-88
2022/05/31 04:31:44;;;;;;;;;;;16.80;52.90;;;;;;5034945;28;20424;-89
2022/05/31 04:34:10;;;;;;;;;;;17.20;52.10;;;;;;5035038;28;19921;-89
2022/05/31 04:36:35;;;;;;;;;;;17.40;51.20;;;;;;5011429;28;20002;-88
2022/05/31 04:39:01;;;;;;;;;;;17.60;51.20;;;;;;5035477;28;19925;-88
2022/05/31 04:41:28;;;;;;;;;;;17.80;51.00;;;;;;5018010;28;19914;-89
2022/05/31 04:43:54;;;;;;;;;;;17.90;50.30;;;;;;5018327;28;19925;-88
2022/05/31 04:46:21;;;;;;;;;;;18.00;49.70;;;;;;5035892;28;21604;-89
2022/05/31 04:48:47;;;;;;;;;;;18.20;49.80;;;;;;5035458;28;19917;-89
2022/05/31 04:51:13;;;;;;;;;;;18.50;50.00;;;;;;5017330;28;20357;-89
2022/05/31 04:53:39;;;;;;;;;;;18.80;50.00;;;;;;5036303;28;20337;-89
2022/05/31 04:56:07;;;;;;;;;;;19.20;50.00;;;;;;5022381;28;19972;-89
2022/05/31 04:58:32;;;;;;;;;;;19.70;49.80;;;;;;5035015;28;19925;-88
2022/05/31 05:01:01;;;;;;;;;;;20.10;49.20;;;;;;5034207;28;19917;-89
2022/05/31 05:03:30;;;;;;;;;;;20.40;48.30;;;;;;5017650;28;19937;-89
2022/05/31 05:05:59;;;;;;;;;;;20.80;47.80;;;;;;5016061;28;19913;-90
2022/05/31 05:08:24;;;;;;;;;;;21.20;47.50;;;;;;5033244;28;19928;-89
2022/05/31 05:10:50;;;;;;;;;;;21.60;47.00;;;;;;5017894;28;19917;-89
2022/05/31 05:13:15;;;;;;;;;;;22.00;46.60;;;;;;5015914;28;19964;-90
2022/05/31 05:15:41;;;;;;;;;;;22.50;46.40;;;;;;5034565;28;20365;-89
2022/05/31 05:18:07;;;;;;;;;;;23.00;45.70;;;;;;5016508;28;19921;-91
2022/05/31 05:20:34;;;;;;;;;;;23.50;45.00;;;;;;5016264;28;19920;-91
2022/05/31 05:23:00;;;;;;;;;;;24.00;43.10;;;;;;5016521;28;19917;-90
2022/05/31 05:25:25;;;;;;;;;;;24.40;41.00;;;;;;5033773;28;20368;-89
2022/05/31 05:27:50;;;;;;;;;;;24.70;40.10;;;;;;5034437;28;19928;-90
2022/05/31 05:33:00;;;;;;;;;;;25.40;37.70;;;;;;5034788;28;19923;-90
2022/05/31 05:35:26;;;;;;;;;;;25.60;36.90;;;;;;5016902;28;20386;-90
2022/05/31 05:37:51;;;;;;;;;;;25.60;35.40;;;;;;5033301;28;20277;-90
2022/05/31 05:40:17;;;;;;;;;;;25.40;34.70;;;;;;5017077;28;19920;-91
2022/05/31 05:42:42;;;;;;;;;;;25.20;34.60;;;;;;5013984;28;19917;-90
2022/05/31 05:45:10;;;;;;;;;;;25.00;34.90;;;;;;5013158;28;19928;-89
2022/05/31 05:47:35;;;;;;;;;;;24.80;34.80;;;;;;5032774;28;20007;-90
2022/05/31 05:50:01;;;;;;;;;;;24.70;34.90;;;;;;5015179;28;19960;-90
2022/05/31 05:52:26;;;;;;;;;;;24.60;35.30;;;;;;5010213;28;20266;-90
2022/05/31 05:54:52;;;;;;;;;;;24.60;35.40;;;;;;5014984;28;20300;-90
2022/05/31 05:57:17;;;;;;;;;;;24.90;35.70;;;;;;5014592;28;19921;-90
2022/05/31 05:59:43;;;;;;;;;;;25.30;35.40;;;;;;5032243;28;20077;-89
2022/05/31 06:02:13;;;;;;;;;;;25.70;34.60;;;;;;5012246;28;19924;-90
2022/05/31 06:04:44;;;;;;;;;;;26.10;33.70;;;;;;5030201;28;20289;-90
2022/05/31 06:07:13;;;;;;;;;;;26.30;32.90;;;;;;5013062;28;19953;-90
2022/05/31 06:09:40;;;;;;;;;;;26.70;32.70;;;;;;5013286;28;19932;-90
2022/05/31 06:12:08;;;;;;;;;;;27.30;32.60;;;;;;5031149;28;19913;-90
2022/05/31 06:14:39;;;;;;;;;;;27.70;32.00;;;;;;5030352;28;20384;-90
2022/05/31 06:17:10;;;;;;;;;;;28.00;30.90;;;;;;5012809;28;19936;-90
2022/05/31 06:19:36;;;;;;;;;;;28.30;30.50;;;;;;5006537;28;19917;-90
2022/05/31 06:22:03;;;;;;;;;;;28.50;30.20;;;;;;5030284;28;19917;-89
2022/05/31 06:24:29;;;;;;;;;;;28.70;30.40;;;;;;5031887;28;19928;-89
2022/05/31 06:26:55;;;;;;;;;;;28.90;30.00;;;;;;4996072;28;19921;-89
2022/05/31 06:29:20;;;;;;;;;;;29.00;29.00;;;;;;5012734;28;20009;-90
2022/05/31 06:31:46;;;;;;;;;;;29.00;28.80;;;;;;5012983;28;19928;-90
2022/05/31 06:34:12;;;;;;;;;;;29.00;29.00;;;;;;5013496;28;19933;-89
2022/05/31 06:36:39;;;;;;;;;;;29.20;29.10;;;;;;5013146;28;20000;-89
2022/05/31 06:39:05;;;;;;;;;;;29.30;29.10;;;;;;5033545;28;19917;-89
2022/05/31 06:41:30;;;;;;;;;;;29.40;28.50;;;;;;5014495;28;19975;-90
2022/05/31 06:43:57;;;;;;;;;;;29.50;28.20;;;;;;5030824;28;19960;-89
2022/05/31 06:46:23;;;;;;;;;;;29.40;27.60;;;;;;5012610;28;19955;-89
2022/05/31 06:48:48;;;;;;;;;;;29.30;27.60;;;;;;5031172;28;19992;-89
2022/05/31 06:56:47;;;;;;;;;;;29.10;27.20;;;;;;5030630;28;20392;-89
2022/05/31 06:56:48;;;;;;;;;;;29.20;27.30;;;;;;5030646;28;20404;-90
2022/05/31 06:59:13;;;;;;;;;;;29.50;27.30;;;;;;5031150;28;19917;-89
2022/05/31 07:01:40;;;;;;;;;;;29.90;27.20;;;;;;5013786;28;19956;-89
2022/05/31 07:04:05;;;;;;;;;;;30.10;26.50;;;;;;5031681;28;20653;-89
2022/05/31 07:06:32;;;;;;;;;;;30.10;25.80;;;;;;5032371;28;19924;-89
2022/05/31 07:08:59;;;;;;;;;;;30.10;25.70;;;;;;5030744;28;19937;-90
2022/05/31 07:11:25;;;;;;;;;;;30.00;25.70;;;;;;5031738;28;19956;-90
2022/05/31 07:13:51;;;;;;;;;;;29.90;25.80;;;;;;5030826;28;20467;-89
2022/05/31 07:16:16;;;;;;;;;;;30.00;26.00;;;;;;5011373;28;19971;-90
2022/05/31 07:18:42;;;;;;;;;;;30.10;26.50;;;;;;5032119;28;19914;-90
2022/05/31 07:21:07;;;;;;;;;;;30.50;26.00;;;;;;5017179;28;20011;-90
2022/05/31 07:23:34;;;;;;;;;;;30.80;25.60;;;;;;5015828;28;19923;-90
2022/05/31 07:26:00;;;;;;;;;;;31.20;25.50;;;;;;5015730;28;19921;-90
2022/05/31 07:28:28;;;;;;;;;;;31.40;24.50;;;;;;5034245;28;20406;-90
2022/05/31 07:30:54;;;;;;;;;;;31.20;23.60;;;;;;5016403;28;19921;-89
2022/05/31 07:33:19;;;;;;;;;;;31.10;23.40;;;;;;5034229;28;20024;-90
2022/05/31 07:35:45;;;;;;;;;;;30.70;23.60;;;;;;5017406;28;19952;-90
2022/05/31 07:38:10;;;;;;;;;;;30.60;23.50;;;;;;5014636;28;19914;-90
2022/05/31 07:40:36;;;;;;;;;;;30.50;23.50;;;;;;5015745;28;19917;-90
2022/05/31 07:43:01;;;;;;;;;;;30.40;23.60;;;;;;5035594;28;19939;-90
2022/05/31 07:45:27;;;;;;;;;;;30.30;23.80;;;;;;5035332;28;19964;-90
2022/05/31 07:47:53;;;;;;;;;;;30.40;24.20;;;;;;5034815;28;20336;-90
2022/05/31 07:50:19;;;;;;;;;;;30.40;23.80;;;;;;5035252;28;20372;-90
2022/05/31 07:52:45;;;;;;;;;;;30.40;23.50;;;;;;5017485;28;19970;-90
2022/05/31 07:55:10;;;;;;;;;;;30.40;23.70;;;;;;5017770;28;19957;-90
2022/05/31 08:00:20;;;;;;;;;;;30.30;23.40;;;;;;5034114;28;19928;-90
2022/05/31 08:02:46;;;;;;;;;;;30.40;23.40;;;;;;5016872;28;19928;-90
2022/05/31 08:05:12;;;;;;;;;;;30.70;23.30;;;;;;5035214;28;19932;-90
2022/05/31 08:07:39;;;;;;;;;;;31.10;23.20;;;;;;5017622;28;19920;-90
2022/05/31 08:10:05;;;;;;;;;;;31.30;22.60;;;;;;5034760;28;19917;-89
2022/05/31 08:12:30;;;;;;;;;;;31.50;22.00;;;;;;5016894;28;20507;-89
2022/05/31 08:14:56;;;;;;;;;;;31.80;22.20;;;;;;5016499;28;20013;-89
2022/05/31 08:17:21;;;;;;;;;;;32.10;22.00;;;;;;5035114;28;19922;-90
2022/05/31 08:19:47;;;;;;;;;;;32.40;21.80;;;;;;5033064;28;20008;-90
2022/05/31 08:22:12;;;;;;;;;;;32.60;21.10;;;;;;5031967;28;19925;-88
2022/05/31 08:24:38;;;;;;;;;;;32.70;21.40;;;;;;5033858;28;20697;-90
2022/05/31 08:27:03;;;;;;;;;;;33.10;21.40;;;;;;5013892;28;19917;-90
2022/05/31 08:29:35;;;;;;;;;;;33.40;20.30;;;;;;5015874;28;19936;-89
2022/05/31 08:32:00;;;;;;;;;;;33.50;20.00;;;;;;5035434;28;20368;-89
2022/05/31 08:34:27;;;;;;;;;;;33.80;19.60;;;;;;5016022;28;19921;-90
2022/05/31 08:36:53;;;;;;;;;;;34.00;19.80;;;;;;5036746;28;20015;-90
2022/05/31 08:39:19;;;;;;;;;;;34.10;19.30;;;;;;5016884;28;19928;-90
2022/05/31 08:41:46;;;;;;;;;;;34.10;19.70;;;;;;5034249;28;19917;-90
2022/05/31 08:44:31;;;;;;;;;;;34.20;19.10;;;;;;5017810;28;19904;-90
2022/05/31 08:47:08;;;;;;;;;;;34.10;19.10;;;;;;5035204;28;19928;-90
2022/05/31 08:52:45;;;;;;;;;;;34.00;19.10;;;;;;5036230;28;20408;-90
2022/05/31 08:58:26;;;;;;;;;;;33.50;19.10;;;;;;5037268;28;19928;-89
2022/05/31 09:00:53;;;;;;;;;;;33.50;19.50;;;;;;5019312;28;19928;-90
2022/05/31 09:03:42;;;;;;;;;;;33.70;19.10;;;;;;5020137;28;19913;-90
2022/05/31 09:06:09;;;;;;;;;;;33.70;18.70;;;;;;5013041;28;20691;-90
2022/05/31 09:08:49;;;;;;;;;;;33.80;18.90;;;;;;5035144;28;19917;-90
2022/05/31 09:11:19;;;;;;;;;;;33.80;19.00;;;;;;5016696;28;19980;-90
2022/05/31 09:14:08;;;;;;;;;;;33.70;18.80;;;;;;5036643;28;19921;-90
2022/05/31 09:16:39;;;;;;;;;;;33.30;18.60;;;;;;5010356;28;20042;-89
2022/05/31 09:19:06;;;;;;;;;;;33.00;19.10;;;;;;5014711;28;19921;-90
2022/05/31 09:21:40;;;;;;;;;;;32.80;19.40;;;;;;5034666;28;19917;-91
2022/05/31 09:24:10;;;;;;;;;;;32.60;19.40;;;;;;5017998;28;19917;-89
2022/05/31 09:26:36;;;;;;;;;;;32.20;19.20;;;;;;5036021;28;19956;-89
2022/05/31 09:29:01;;;;;;;;;;;31.80;19.20;;;;;;5034807;28;20381;-90
2022/05/31 09:31:39;;;;;;;;;;;31.50;18.90;;;;;;5034536;28;19925;-90
2022/05/31 09:34:20;;;;;;;;;;;31.10;18.70;;;;;;5016423;28;19921;-90
2022/05/31 09:36:52;;;;;;;;;;;30.60;19.30;;;;;;5012180;28;19963;-90
2022/05/31 09:39:21;;;;;;;;;;;30.20;19.90;;;;;;5025837;28;19917;-89
2022/05/31 09:41:59;;;;;;;;;;;29.90;20.30;;;;;;5017716;28;19981;-90
2022/05/31 09:44:28;;;;;;;;;;;29.60;20.70;;;;;;5013927;28;19925;-90
2022/05/31 09:46:59;;;;;;;;;;;29.40;21.10;;;;;;5015634;28;19968;-89
2022/05/31 09:49:33;;;;;;;;;;;29.20;21.30;;;;;;5016206;28;20388;-89
2022/05/31 09:51:59;;;;;;;;;;;29.00;21.40;;;;;;5017697;28;19921;-90
2022/05/31 09:57:18;;;;;;;;;;;28.60;21.90;;;;;;5032566;28;20436;-90
2022/05/31 09:59:49;;;;;;;;;;;28.40;22.10;;;;;;5035191;28;20738;-91
2022/05/31 10:02:17;;;;;;;;;;;28.30;22.40;;;;;;5035359;28;19917;-91
2022/05/31 10:04:43;;;;;;;;;;;28.30;22.40;;;;;;5035252;28;19924;-90
2022/05/31 10:07:09;;;;;;;;;;;28.20;22.60;;;;;;5017324;28;20643;-90
2022/05/31 10:09:34;;;;;;;;;;;28.00;22.40;;;;;;5017072;28;19913;-91
2022/05/31 10:12:14;;;;;;;;;;;27.80;22.50;;;;;;5023150;28;20362;-90
2022/05/31 10:14:49;;;;;;;;;;;27.70;22.70;;;;;;5009365;28;19925;-90
2022/05/31 10:17:28;;;;;;;;;;;27.50;22.90;;;;;;5012404;28;19928;-90
2022/05/31 10:20:09;;;;;;;;;;;27.40;23.00;;;;;;5014810;28;19914;-89
2022/05/31 10:22:36;;;;;;;;;;;27.30;23.20;;;;;;5021200;28;19924;-89
2022/05/31 10:25:21;;;;;;;;;;;27.10;23.50;;;;;;5034749;28;19913;-89
2022/05/31 10:27:47;;;;;;;;;;;26.90;23.80;;;;;;5028147;28;19921;-89
2022/05/31 10:30:20;;;;;;;;;;;26.70;24.00;;;;;;5026518;28;19929;-88
2022/05/31 10:32:51;;;;;;;;;;;26.40;24.30;;;;;;5014626;28;19917;-88
2022/05/31 10:35:24;;;;;;;;;;;26.30;24.50;;;;;;5034497;28;20317;-90
2022/05/31 10:37:58;;;;;;;;;;;26.10;24.80;;;;;;5015578;28;19921;-90
2022/05/31 10:40:26;;;;;;;;;;;26.10;25.20;;;;;;5017612;28;19913;-89
2022/05/31 10:42:54;;;;;;;;;;;25.90;25.80;;;;;;5024949;28;19922;-89
2022/05/31 10:45:21;;;;;;;;;;;25.80;26.00;;;;;;5033777;28;19913;-89
2022/05/31 10:47:46;;;;;;;;;;;25.80;26.30;;;;;;5018093;28;19917;-90
2022/05/31 10:50:13;;;;;;;;;;;25.70;26.30;;;;;;5016787;28;19963;-90
2022/05/31 10:52:46;;;;;;;;;;;25.70;26.30;;;;;;5033233;28;19928;-89
2022/05/31 10:55:12;;;;;;;;;;;25.80;26.40;;;;;;5032897;28;20385;-89
2022/05/31 10:57:51;;;;;;;;;;;25.80;26.30;;;;;;5033473;28;19970;-90
2022/05/31 11:00:20;;;;;;;;;;;25.90;26.00;;;;;;5015546;28;19920;-88
2022/05/31 11:02:51;;;;;;;;;;;25.80;25.80;;;;;;5021073;28;20008;-90
2022/05/31 11:05:21;;;;;;;;;;;25.80;26.00;;;;;;5036220;28;19913;-90
2022/05/31 11:13:53;;;;;;;;;;;25.80;26.40;;;;;;5027383;28;19935;-91
2022/05/31 11:16:19;;;;;;;;;;;25.80;26.70;;;;;;5016430;28;20422;-88
2022/05/31 11:18:44;;;;;;;;;;;25.80;26.80;;;;;;5030203;28;19917;-91
2022/05/31 11:21:28;;;;;;;;;;;25.90;26.80;;;;;;5033498;28;20012;-90
2022/05/31 11:24:13;;;;;;;;;;;26.00;26.60;;;;;;5027249;28;20031;-91
2022/05/31 11:26:38;;;;;;;;;;;26.10;26.80;;;;;;5037529;28;20024;-89
2022/05/31 11:29:33;;;;;;;;;;;26.20;27.00;;;;;;5039299;28;19948;-90
2022/05/31 11:32:05;;;;;;;;;;;26.30;26.80;;;;;;5008504;28;20773;-90
2022/05/31 11:34:31;;;;;;;;;;;26.30;26.50;;;;;;5035817;28;19917;-88
2022/05/31 11:37:08;;;;;;;;;;;26.40;26.40;;;;;;5037678;28;20370;-89
2022/05/31 11:39:33;;;;;;;;;;;26.30;26.40;;;;;;5018146;28;19913;-89
2022/05/31 11:42:02;;;;;;;;;;;26.30;26.50;;;;;;5018048;28;19932;-91
2022/05/31 11:44:48;;;;;;;;;;;26.30;26.50;;;;;;5035175;28;19913;-90
2022/05/31 11:47:24;;;;;;;;;;;26.30;26.60;;;;;;5022416;28;19976;-90
2022/05/31 11:49:58;;;;;;;;;;;26.30;26.60;;;;;;5036016;28;19970;-90
2022/05/31 11:52:23;;;;;;;;;;;26.30;26.40;;;;;;5045158;28;19967;-90
2022/05/31 11:55:25;;;;;;;;;;;26.30;26.60;;;;;;5016475;28;19926;-90
2022/05/31 11:57:43;;;;;;;;;;;26.40;26.70;;;;;;5041802;28;20357;-89
2022/05/31 12:00:11;;;;;;;;;;;26.50;26.70;;;;;;5019829;28;19920;-90
2022/05/31 12:02:45;;;;;;;;;;;26.60;26.70;;;;;;5019382;28;20243;-89
2022/05/31 12:05:13;;;;;;;;;;;26.70;26.50;;;;;;5022330;28;19917;-90
2022/05/31 12:07:48;;;;;;;;;;;26.80;26.60;;;;;;5024939;28;19921;-90
2022/05/31 12:10:18;;;;;;;;;;;26.80;26.70;;;;;;5027689;28;19920;-90
2022/05/31 12:12:44;;;;;;;;;;;26.80;26.50;;;;;;5021274;28;19914;-90
2022/05/31 12:15:14;;;;;;;;;;;26.70;26.00;;;;;;5036563;28;20328;-90
2022/05/31 12:18:12;;;;;;;;;;;26.60;25.90;;;;;;5029098;28;19964;-91
2022/05/31 12:20:44;;;;;;;;;;;26.40;26.30;;;;;;5004693;28;19960;-90
2022/05/31 12:23:12;;;;;;;;;;;26.20;26.70;;;;;;5039473;28;19913;-90
2022/05/31 12:25:42;;;;;;;;;;;26.10;27.20;;;;;;5034319;28;19928;-91
2022/05/31 12:28:19;;;;;;;;;;;26.00;27.70;;;;;;5022717;28;19960;-90
2022/05/31 12:30:52;;;;;;;;;;;25.80;28.50;;;;;;5023334;28;19981;-90
2022/05/31 12:33:25;;;;;;;;;;;25.40;29.60;;;;;;5044369;28;19921;-90
2022/05/31 12:35:52;;;;;;;;;;;25.00;31.20;;;;;;5043415;28;19929;-90
2022/05/31 12:38:17;;;;;;;;;;;24.50;32.70;;;;;;5022541;28;19913;-90
2022/05/31 12:40:51;;;;;;;;;;;24.10;35.60;;;;;;5022525;28;19924;-90
2022/05/31 12:46:48;;;;;;;;;;;22.90;43.80;;;;;;5038832;28;20270;-91
2022/05/31 12:49:24;;;;;;;;;;;22.30;46.60;;;;;;5042684;28;20023;-92
2022/05/31 12:52:08;;;;;;;;;;;21.70;48.70;;;;;;5029310;28;19920;-91
2022/05/31 12:55:03;;;;;;;;;;;21.30;50.60;;;;;;5028287;28;20369;-92
2022/05/31 12:58:26;;;;;;;;;;;21.10;53.30;;;;;;5014752;28;19921;-91
2022/05/31 13:00:41;;;;;;;;;;;21.00;55.60;;;;;;5041945;28;20210;-91
2022/05/31 13:03:26;;;;;;;;;;;21.20;57.90;;;;;;5039058;28;19928;-91
2022/05/31 13:05:58;;;;;;;;;;;21.80;59.00;;;;;;5040172;28;19917;-91
2022/05/31 13:08:43;;;;;;;;;;;22.40;59.20;;;;;;5020870;28;19928;-89
2022/05/31 13:19:41;;;;;;;;;;;22.90;59.20;;;;;;5037842;28;19966;-91
2022/05/31 13:22:17;;;;;;;;;;;23.00;58.30;;;;;;5018676;28;19952;-90
2022/05/31 13:24:44;;;;;;;;;;;23.00;57.50;;;;;;5018301;28;19920;-91
2022/05/31 13:27:10;;;;;;;;;;;23.00;57.60;;;;;;5020846;28;19924;-90
2022/05/31 13:29:35;;;;;;;;;;;23.00;58.70;;;;;;5035865;28;19945;-90
2022/05/31 13:32:01;;;;;;;;;;;23.20;60.20;;;;;;5016868;28;20254;-90
2022/05/31 13:34:28;;;;;;;;;;;23.40;60.70;;;;;;5018870;28;19990;-91
2022/05/31 13:36:53;;;;;;;;;;;23.60;60.70;;;;;;5021419;28;19923;-90
2022/05/31 13:39:19;;;;;;;;;;;23.80;60.10;;;;;;5031445;28;20004;-91
2022/05/31 13:41:52;;;;;;;;;;;23.80;59.50;;;;;;5037328;28;19939;-90
2022/05/31 13:44:47;;;;;;;;;;;24.30;58.10;;;;;;5019548;28;19964;-91
2022/05/31 13:47:15;;;;;;;;;;;24.60;57.30;;;;;;5025563;28;20440;-90
2022/05/31 13:49:45;;;;;;;;;;;24.70;56.20;;;;;;5030570;28;19956;-89
2022/05/31 13:52:24;;;;;;;;;;;24.90;52.40;;;;;;5016608;28;19917;-89
2022/05/31 13:54:51;;;;;;;;;;;24.90;54.20;;;;;;5018381;28;19917;-89
2022/05/31 13:57:19;;;;;;;;;;;25.10;53.30;;;;;;5031761;28;19924;-90
2022/05/31 13:59:46;;;;;;;;;;;25.40;53.50;;;;;;5017138;28;19917;-89
2022/05/31 14:02:14;;;;;;;;;;;25.70;53.60;;;;;;5033831;28;20448;-90
2022/05/31 14:04:39;;;;;;;;;;;26.20;53.80;;;;;;5013933;28;19914;-89
2022/05/31 14:07:08;;;;;;;;;;;27.00;51.90;;;;;;5036067;28;19919;-90
2022/05/31 14:09:36;;;;;;;;;;;27.70;48.80;;;;;;5026901;28;19983;-89
2022/05/31 14:12:06;;;;;;;;;;;27.90;42.60;;;;;;5016434;28;19948;-89
2022/05/31 14:14:44;;;;;;;;;;;27.90;41.50;;;;;;5033508;28;19921;-89
2022/05/31 14:17:14;;;;;;;;;;;27.80;42.80;;;;;;5013782;28;19925;-89
2022/05/31 14:19:45;;;;;;;;;;;27.80;43.80;;;;;;5022269;28;19919;-89
2022/05/31 14:22:20;;;;;;;;;;;27.70;43.50;;;;;;5034803;28;19913;-89
2022/05/31 14:24:45;;;;;;;;;;;27.50;43.10;;;;;;5028878;28;20281;-89
2022/05/31 14:27:19;;;;;;;;;;;27.30;43.90;;;;;;5028350;28;19913;-89
2022/05/31 14:29:56;;;;;;;;;;;27.10;43.60;;;;;;5016075;28;19996;-89
2022/05/31 14:32:25;;;;;;;;;;;26.90;43.90;;;;;;5015719;28;19945;-89
2022/05/31 14:34:52;;;;;;;;;;;26.70;43.00;;;;;;5024724;28;20015;-90
2022/05/31 14:37:26;;;;;;;;;;;26.30;42.30;;;;;;5032619;28;19968;-89
2022/05/31 14:39:53;;;;;;;;;;;25.80;42.60;;;;;;5038991;28;19909;-89
2022/05/31 14:42:40;;;;;;;;;;;25.20;43.60;;;;;;5029975;28;19967;-89
2022/05/31 14:45:17;;;;;;;;;;;24.80;45.90;;;;;;5036011;28;19913;-90
2022/05/31 14:47:42;;;;;;;;;;;24.40;44.90;;;;;;5017975;28;19979;-89
2022/05/31 14:50:12;;;;;;;;;;;24.10;44.90;;;;;;5035018;28;20380;-88
2022/05/31 14:52:44;;;;;;;;;;;23.80;45.10;;;;;;5016708;28;19913;-88
2022/05/31 14:55:10;;;;;;;;;;;23.50;45.40;;;;;;5011509;28;19930;-88
2022/05/31 15:00:20;;;;;;;;;;;23.10;46.50;;;;;;5034035;28;19991;-88
2022/05/31 15:02:52;;;;;;;;;;;22.90;47.00;;;;;;5023703;28;19973;-88
2022/05/31 15:05:26;;;;;;;;;;;22.90;45.10;;;;;;5022523;28;19928;-89
2022/05/31 15:07:59;;;;;;;;;;;22.80;46.30;;;;;;5014111;28;19913;-88